Terminal Aerodrome Forecast
Issued by NWS

Home | Current Version | Previous Version | Text Only | Print | Product List | Glossary On
Versions: 1 2 3 4 5 6 7 8 9 10 11 12 13
000
FTUS43 KMPX 250500
TAFRWF
TAF
KRWF 250531Z 2506/2606 21004KT P6SM SKC
     FM251600 28009KT P6SM FEW150
     FM260100 31005KT P6SM BKN150=

USA.gov is the U.S. government's official web portal to all federal, state and local government web resources and services.